createdAt,value
2018-01-07T00:01:33.575Z,18.07
2018-01-07T00:04:02.059Z,17.83
2018-01-07T00:06:29.684Z,17.50
2018-01-07T00:08:58.040Z,15.73
2018-01-07T00:11:25.661Z,16.57
2018-01-07T00:13:54.160Z,17.13
2018-01-07T00:16:21.774Z,16.60
2018-01-07T00:18:49.362Z,17.70
2018-01-07T00:21:16.961Z,17.00
2018-01-07T00:23:44.543Z,19.07
2018-01-07T00:26:12.956Z,16.83
2018-01-07T00:28:40.546Z,17.30
2018-01-07T00:31:08.242Z,17.20
2018-01-07T00:33:35.956Z,19.07
2018-01-07T00:36:03.571Z,19.60
2018-01-07T00:38:31.157Z,18.83
2018-01-07T00:40:58.780Z,18.10
2018-01-07T00:43:27.157Z,21.63
2018-01-07T00:45:55.720Z,18.60
2018-01-07T00:48:23.301Z,17.90
2018-01-07T00:50:51.654Z,18.93
2018-01-07T00:53:19.261Z,17.77
2018-01-07T00:55:46.913Z,17.27
2018-01-07T00:58:15.270Z,16.77
2018-01-07T01:00:42.861Z,19.00
2018-01-07T01:03:10.477Z,18.13
2018-01-07T01:05:38.068Z,17.97
2018-01-07T01:08:06.449Z,17.17
2018-01-07T01:10:34.821Z,16.70
2018-01-07T01:13:03.208Z,16.83
2018-01-07T01:15:31.591Z,19.50
2018-01-07T01:17:59.961Z,18.97
2018-01-07T01:20:28.333Z,18.20
2018-01-07T01:22:56.700Z,19.87
2018-01-07T01:25:24.961Z,18.23
2018-01-07T01:27:52.582Z,19.33
2018-01-07T01:30:20.428Z,17.33
2018-01-07T01:32:48.051Z,18.10
2018-01-07T01:35:15.681Z,18.70
2018-01-07T01:37:43.273Z,16.40
2018-01-07T01:40:10.880Z,17.23
2018-01-07T01:42:38.544Z,16.60
2018-01-07T01:45:06.522Z,18.63
2018-01-07T01:47:34.141Z,17.63
2018-01-07T01:50:02.710Z,17.53
2018-01-07T01:52:30.348Z,15.93
2018-01-07T01:54:58.026Z,16.90
2018-01-07T01:57:25.634Z,15.23
2018-01-07T01:59:53.213Z,15.03
2018-01-07T02:02:20.841Z,16.53
2018-01-07T02:04:49.191Z,16.87
2018-01-07T02:07:16.793Z,18.60
2018-01-07T02:09:44.417Z,16.73
2018-01-07T02:12:12.010Z,16.47
2018-01-07T02:14:39.640Z,16.60
2018-01-07T02:17:07.397Z,15.97
2018-01-07T02:19:35.018Z,15.97
2018-01-07T02:22:02.688Z,16.23
2018-01-07T02:24:30.303Z,17.30
2018-01-07T02:26:58.656Z,15.23
2018-01-07T02:29:26.264Z,15.97
2018-01-07T02:31:53.847Z,15.57
2018-01-07T02:34:21.446Z,14.77
2018-01-07T02:36:49.045Z,13.77
2018-01-07T02:39:16.672Z,13.47
2018-01-07T02:41:44.264Z,14.27
2018-01-07T02:44:11.857Z,15.37
2018-01-07T02:46:39.480Z,15.17
2018-01-07T02:49:07.069Z,15.40
2018-01-07T02:51:34.678Z,13.27
2018-01-07T02:54:03.350Z,11.93
2018-01-07T02:56:30.954Z,14.43
2018-01-07T02:58:58.592Z,16.27
2018-01-07T03:01:26.969Z,15.70
2018-01-07T03:03:55.363Z,13.40
2018-01-07T03:06:23.717Z,14.10
2018-01-07T03:08:52.090Z,13.63
2018-01-07T03:11:20.466Z,15.70
2018-01-07T03:13:48.081Z,17.97
2018-01-07T03:16:15.881Z,15.57
2018-01-07T03:18:43.496Z,12.87
2018-01-07T03:21:11.102Z,11.60
2018-01-07T03:23:38.771Z,14.70
2018-01-07T03:26:06.641Z,12.47
2018-01-07T03:28:34.279Z,12.37
2018-01-07T03:31:01.914Z,14.97
2018-01-07T03:33:29.535Z,12.33
2018-01-07T03:35:57.116Z,10.40
2018-01-07T03:38:25.492Z,9.40
2018-01-07T03:40:53.878Z,10.33
2018-01-07T03:43:21.514Z,10.43
2018-01-07T03:45:49.113Z,12.47
2018-01-07T03:48:16.747Z,12.07
2018-01-07T03:50:45.129Z,9.10
2018-01-07T03:53:13.506Z,10.57
2018-01-07T03:55:41.866Z,11.23
2018-01-07T03:58:10.237Z,10.27
2018-01-07T04:00:37.852Z,11.20
2018-01-07T04:03:06.336Z,13.37
2018-01-07T04:05:33.913Z,14.03
2018-01-07T04:08:01.532Z,13.90
2018-01-07T04:10:29.113Z,11.30
2018-01-07T04:12:56.732Z,12.60
2018-01-07T04:15:25.097Z,10.90
2018-01-07T04:17:52.720Z,9.63
2018-01-07T04:20:20.299Z,11.57
2018-01-07T04:22:47.893Z,12.30
2018-01-07T04:25:17.230Z,13.10
2018-01-07T04:27:44.838Z,12.47
2018-01-07T04:30:12.457Z,13.03
2018-01-07T04:32:40.065Z,16.40
2018-01-07T04:35:07.668Z,11.63
2018-01-07T04:37:35.266Z,11.40
2018-01-07T04:40:02.885Z,13.67
2018-01-07T04:42:30.479Z,11.50
2018-01-07T04:44:58.087Z,12.70
2018-01-07T04:47:26.433Z,10.60
2018-01-07T04:49:54.034Z,10.30
2018-01-07T04:52:21.694Z,11.67
2018-01-07T04:54:49.330Z,11.00
2018-01-07T04:57:16.928Z,10.60
2018-01-07T04:59:44.520Z,10.47
2018-01-07T05:02:12.907Z,10.13
2018-01-07T05:04:40.535Z,10.47
2018-01-07T05:07:08.192Z,10.90
2018-01-07T05:09:35.787Z,12.27
2018-01-07T05:12:03.393Z,11.20
2018-01-07T05:14:31.773Z,11.10
2018-01-07T05:17:00.134Z,12.80
2018-01-07T05:19:30.253Z,12.47
2018-01-07T05:21:57.840Z,12.70
2018-01-07T05:24:25.461Z,11.77
2018-01-07T05:26:53.059Z,13.47
2018-01-07T05:29:20.675Z,13.20
2018-01-07T05:31:48.277Z,13.70
2018-01-07T05:34:15.924Z,12.17
2018-01-07T05:36:44.281Z,13.77
2018-01-07T05:39:11.885Z,12.97
2018-01-07T05:41:40.130Z,13.97
2018-01-07T05:44:08.607Z,13.03
2018-01-07T05:46:36.190Z,13.37
2018-01-07T05:49:03.783Z,14.97
2018-01-07T05:51:31.373Z,12.90
2018-01-07T05:53:59.048Z,12.87
2018-01-07T05:56:26.661Z,12.57
2018-01-07T05:58:54.284Z,11.77
2018-01-07T06:01:22.653Z,12.87
2018-01-07T06:03:50.437Z,12.30
2018-01-07T06:06:18.055Z,13.63
2018-01-07T06:08:45.636Z,14.13
2018-01-07T06:11:13.226Z,14.80
2018-01-07T06:13:40.837Z,12.87
2018-01-07T06:16:09.185Z,13.40
2018-01-07T06:18:36.777Z,14.43
2018-01-07T06:21:04.557Z,13.13
2018-01-07T06:23:32.181Z,13.03
2018-01-07T06:25:59.793Z,12.57
2018-01-07T06:28:28.409Z,13.63
2018-01-07T06:30:56.053Z,13.67
2018-01-07T06:33:23.685Z,14.07
2018-01-07T06:35:51.261Z,13.33
2018-01-07T06:38:19.650Z,13.93
2018-01-07T06:40:47.397Z,13.20
2018-01-07T06:43:15.774Z,13.93
2018-01-07T06:45:44.146Z,14.40
2018-01-07T06:48:12.573Z,14.27
2018-01-07T06:50:40.169Z,13.43
2018-01-07T06:53:07.790Z,13.70
2018-01-07T06:55:35.382Z,14.50
2018-01-07T06:58:02.993Z,14.13
2018-01-07T07:00:30.713Z,14.10
2018-01-07T07:02:58.280Z,14.23
2018-01-07T07:05:27.072Z,15.23
2018-01-07T07:07:55.403Z,14.73
2018-01-07T07:10:22.997Z,15.10
2018-01-07T07:12:50.601Z,15.50
2018-01-07T07:15:18.282Z,15.43
2018-01-07T07:17:45.879Z,17.33
2018-01-07T07:20:13.457Z,16.00
2018-01-07T07:22:41.034Z,15.60
2018-01-07T07:25:09.417Z,16.40
2018-01-07T07:27:37.766Z,14.50
2018-01-07T07:30:05.372Z,17.00
2018-01-07T07:32:32.949Z,16.47
2018-01-07T07:35:00.737Z,16.00
2018-01-07T07:37:28.401Z,17.53
2018-01-07T07:39:56.021Z,17.00
2018-01-07T07:42:23.600Z,17.40
2018-01-07T07:44:51.212Z,16.30
2018-01-07T07:47:19.590Z,17.20
2018-01-07T07:49:47.973Z,17.57
2018-01-07T07:52:16.322Z,17.60
2018-01-07T07:54:43.934Z,17.93
2018-01-07T07:57:11.549Z,17.20
2018-01-07T07:59:39.153Z,18.87
2018-01-07T08:02:06.733Z,17.30
2018-01-07T08:04:34.369Z,17.23
2018-01-07T08:07:01.956Z,17.03
2018-01-07T08:09:29.545Z,16.90
2018-01-07T08:11:57.150Z,18.87
2018-01-07T08:14:24.754Z,21.30
2018-01-07T08:16:53.052Z,19.93
2018-01-07T08:19:21.417Z,22.67
2018-01-07T08:21:49.039Z,19.03
2018-01-07T08:24:16.637Z,19.63
2018-01-07T08:26:44.234Z,18.53
2018-01-07T08:29:11.865Z,18.27
2018-01-07T08:31:40.261Z,17.20
2018-01-07T08:34:08.665Z,18.03
2018-01-07T08:36:36.274Z,17.17
2018-01-07T08:39:03.899Z,17.27
2018-01-07T08:41:31.487Z,17.07
2018-01-07T08:43:59.101Z,17.57
2018-01-07T08:46:26.692Z,17.03
2018-01-07T08:48:54.288Z,17.90
2018-01-07T08:51:21.868Z,16.77
2018-01-07T08:53:50.291Z,17.10
2018-01-07T08:56:17.883Z,16.57
2018-01-07T08:58:45.498Z,16.43
2018-01-07T09:01:13.182Z,18.37
2018-01-07T09:03:40.786Z,19.93
2018-01-07T09:06:09.189Z,16.83
2018-01-07T09:08:36.781Z,16.30
2018-01-07T09:11:04.389Z,16.93
2018-01-07T09:13:32.749Z,16.73
2018-01-07T09:16:00.374Z,16.07
2018-01-07T09:18:27.965Z,16.70
2018-01-07T09:20:55.591Z,17.10
2018-01-07T09:23:23.274Z,16.17
2018-01-07T09:25:51.649Z,17.20
2018-01-07T09:28:19.246Z,17.87
2018-01-07T09:30:46.920Z,16.87
2018-01-07T09:33:15.304Z,18.77
2018-01-07T09:35:42.960Z,17.57
2018-01-07T09:38:11.347Z,18.73
2018-01-07T09:40:38.975Z,18.47
2018-01-07T09:43:06.640Z,18.53
2018-01-07T09:45:34.330Z,20.73
2018-01-07T09:48:02.707Z,18.77
2018-01-07T09:50:30.369Z,20.63
2018-01-07T09:52:57.988Z,21.33
2018-01-07T09:55:25.639Z,20.40
2018-01-07T09:57:53.261Z,20.03
2018-01-07T10:00:20.921Z,20.87
2018-01-07T10:02:48.516Z,20.93
2018-01-07T10:05:16.165Z,20.57
2018-01-07T10:07:43.815Z,19.47
2018-01-07T10:10:11.432Z,19.80
2018-01-07T10:12:39.045Z,19.40
2018-01-07T10:15:06.666Z,19.47
2018-01-07T10:17:35.453Z,19.53
2018-01-07T10:20:03.802Z,17.97
2018-01-07T10:22:31.408Z,18.43
2018-01-07T10:24:59.030Z,17.33
2018-01-07T10:27:27.385Z,18.20
2018-01-07T10:29:55.763Z,18.17
2018-01-07T10:32:24.107Z,17.53
2018-01-07T10:34:51.777Z,18.77
2018-01-07T10:37:19.366Z,16.53
2018-01-07T10:39:47.729Z,21.97
2018-01-07T10:42:15.338Z,18.30
2018-01-07T10:44:43.741Z,19.70
2018-01-07T10:47:11.341Z,19.40
2018-01-07T10:49:38.925Z,16.53
2018-01-07T10:52:06.569Z,16.27
2018-01-07T10:54:34.202Z,15.93
2018-01-07T10:57:01.814Z,14.97
2018-01-07T10:59:29.402Z,15.90
2018-01-07T11:01:57.879Z,15.13
2018-01-07T11:04:26.241Z,14.77
2018-01-07T11:06:54.627Z,13.60
2018-01-07T11:09:23.047Z,14.00
2018-01-07T11:11:50.658Z,15.10
2018-01-07T11:14:19.033Z,15.17
2018-01-07T11:16:46.653Z,25.53
2018-01-07T11:19:14.278Z,16.47
2018-01-07T11:21:42.648Z,15.00
2018-01-07T11:24:11.034Z,14.00
2018-01-07T11:26:38.633Z,14.27
2018-01-07T11:29:06.249Z,13.53
2018-01-07T11:31:34.625Z,15.00
2018-01-07T11:34:03.028Z,13.30
2018-01-07T11:36:30.616Z,13.87
2018-01-07T11:38:58.222Z,13.07
2018-01-07T11:41:26.602Z,13.43
2018-01-07T11:43:54.987Z,13.27
2018-01-07T11:46:23.438Z,13.40
2018-01-07T11:48:51.564Z,13.70
2018-01-07T11:51:19.168Z,12.70
2018-01-07T11:53:46.786Z,14.10
2018-01-07T11:56:14.385Z,13.97
2018-01-07T11:58:41.998Z,12.97
2018-01-07T12:01:09.630Z,14.17
2018-01-07T12:03:37.976Z,14.80
2018-01-07T12:06:05.584Z,13.60
2018-01-07T12:08:34.052Z,13.27
2018-01-07T12:11:02.423Z,14.77
2018-01-07T12:13:30.781Z,15.07
2018-01-07T12:15:58.402Z,13.33
2018-01-07T12:18:25.980Z,12.67
2018-01-07T12:20:53.611Z,13.03
2018-01-07T12:23:21.207Z,13.30
2018-01-07T12:25:48.819Z,13.57
2018-01-07T12:28:17.180Z,13.10
2018-01-07T12:30:45.568Z,13.03
2018-01-07T12:33:13.945Z,12.57
2018-01-07T12:35:42.310Z,13.10
2018-01-07T12:38:09.896Z,13.33
2018-01-07T12:40:39.013Z,11.37
2018-01-07T12:43:07.515Z,13.07
2018-01-07T12:45:35.109Z,12.87
2018-01-07T12:48:02.728Z,11.97
2018-01-07T12:50:30.357Z,11.63
2018-01-07T12:52:58.721Z,13.03
2018-01-07T12:55:27.212Z,14.33
2018-01-07T12:57:56.568Z,13.80
2018-01-07T13:00:24.158Z,11.83
2018-01-07T13:02:52.577Z,13.67
2018-01-07T13:05:20.170Z,12.53
2018-01-07T13:07:47.774Z,12.30
2018-01-07T13:10:16.163Z,12.87
2018-01-07T13:12:43.764Z,13.57
2018-01-07T13:15:11.374Z,13.07
2018-01-07T13:17:38.989Z,13.77
2018-01-07T13:20:06.620Z,13.30
2018-01-07T13:22:34.210Z,15.30
2018-01-07T13:25:01.821Z,13.17
2018-01-07T13:27:29.411Z,14.20
2018-01-07T13:29:57.864Z,13.80
2018-01-07T13:32:25.495Z,20.73
2018-01-07T13:34:53.102Z,27.17
2018-01-07T13:37:20.817Z,15.90
2018-01-07T13:39:48.410Z,15.13
2018-01-07T13:42:16.773Z,15.67
2018-01-07T13:44:45.228Z,14.63
2018-01-07T13:47:12.840Z,16.83
2018-01-07T13:49:40.444Z,14.53
2018-01-07T13:52:08.068Z,15.87
2018-01-07T13:54:35.756Z,14.10
2018-01-07T13:57:03.385Z,14.07
2018-01-07T13:59:30.970Z,13.27
2018-01-07T14:01:58.581Z,14.63
2018-01-07T14:04:27.017Z,14.97
2018-01-07T14:06:54.638Z,14.07
2018-01-07T14:09:22.277Z,13.93
2018-01-07T14:11:50.632Z,14.50
2018-01-07T14:14:18.278Z,14.37
2018-01-07T14:16:45.913Z,13.90
2018-01-07T14:19:13.544Z,14.23
2018-01-07T14:21:41.897Z,14.53
2018-01-07T14:24:09.513Z,24.37
2018-01-07T14:26:37.097Z,25.07
2018-01-07T14:29:05.476Z,28.20
2018-01-07T14:31:33.896Z,25.97
2018-01-07T14:34:02.334Z,25.90
2018-01-07T14:36:29.934Z,25.80
2018-01-07T14:38:58.464Z,25.90
2018-01-07T14:41:26.061Z,25.77
2018-01-07T14:43:53.650Z,24.90
2018-01-07T14:46:21.271Z,24.83
2018-01-07T14:48:48.913Z,24.17
2018-01-07T14:51:18.078Z,23.50
2018-01-07T14:53:45.696Z,24.83
2018-01-07T14:56:13.376Z,22.83
2018-01-07T14:58:41.817Z,21.70
2018-01-07T15:01:09.426Z,20.57
2018-01-07T15:03:37.046Z,19.00
2018-01-07T15:06:04.673Z,15.90
2018-01-07T15:08:32.264Z,15.87
2018-01-07T15:10:59.866Z,15.17
2018-01-07T15:13:28.253Z,14.47
2018-01-07T15:15:55.920Z,15.63
2018-01-07T15:18:23.520Z,15.33
2018-01-07T15:20:51.217Z,16.27
2018-01-07T15:23:19.584Z,15.63
2018-01-07T15:25:47.950Z,15.20
2018-01-07T15:28:15.598Z,16.97
2018-01-07T15:30:43.226Z,18.10
2018-01-07T15:33:10.837Z,18.47
2018-01-07T15:35:38.464Z,14.47
2018-01-07T15:38:06.112Z,16.17
2018-01-07T15:40:33.722Z,13.47
2018-01-07T15:43:02.087Z,13.07
2018-01-07T15:45:29.850Z,14.00
2018-01-07T15:47:57.476Z,12.93
2018-01-07T15:50:25.081Z,14.77
2018-01-07T15:52:52.699Z,14.40
2018-01-07T15:55:20.314Z,15.43
2018-01-07T15:57:47.902Z,15.37
2018-01-07T16:00:16.307Z,15.77
2018-01-07T16:02:43.898Z,16.53
2018-01-07T16:05:11.541Z,15.13
2018-01-07T16:07:39.165Z,13.37
2018-01-07T16:10:06.795Z,13.10
2018-01-07T16:12:36.239Z,14.00
2018-01-07T16:15:03.902Z,13.17
2018-01-07T16:17:31.497Z,14.40
2018-01-07T16:19:59.141Z,13.77
2018-01-07T16:22:26.741Z,13.83
2018-01-07T16:24:54.389Z,15.13
2018-01-07T16:27:21.976Z,14.43
2018-01-07T16:29:50.401Z,15.17
2018-01-07T16:32:18.625Z,15.03
2018-01-07T16:34:46.996Z,15.93
2018-01-07T16:37:14.615Z,16.37
2018-01-07T16:39:42.198Z,17.20
2018-01-07T16:42:09.807Z,16.87
2018-01-07T16:44:37.431Z,17.40
2018-01-07T16:47:05.038Z,17.17
2018-01-07T16:49:32.653Z,18.17
2018-01-07T16:52:00.258Z,18.23
2018-01-07T16:54:27.847Z,17.93
2018-01-07T16:56:55.464Z,18.80
2018-01-07T16:59:23.808Z,19.57
2018-01-07T17:01:51.455Z,19.83
2018-01-07T17:04:19.066Z,19.43
2018-01-07T17:06:47.438Z,18.93
2018-01-07T17:09:15.798Z,19.50
2018-01-07T17:11:44.193Z,21.50
2018-01-07T17:14:12.574Z,18.93
2018-01-07T17:16:40.937Z,19.67
2018-01-07T17:19:09.622Z,20.03
2018-01-07T17:21:37.171Z,25.63
2018-01-07T17:24:05.047Z,38.63
2018-01-07T17:26:32.806Z,24.93
2018-01-07T17:29:00.431Z,41.50
2018-01-07T17:31:30.384Z,22.47
2018-01-07T17:33:58.010Z,35.10
2018-01-07T17:36:25.815Z,19.77
2018-01-07T17:38:53.502Z,20.70
2018-01-07T17:41:21.894Z,19.77
2018-01-07T17:43:49.562Z,21.53
2018-01-07T17:46:17.161Z,20.77
2018-01-07T17:48:44.828Z,23.27
2018-01-07T17:51:12.465Z,21.23
2018-01-07T17:53:40.079Z,25.63
2018-01-07T17:56:08.449Z,26.23
2018-01-07T17:58:36.876Z,19.67
2018-01-07T18:01:04.502Z,19.20
2018-01-07T18:03:32.888Z,18.97
2018-01-07T18:06:00.498Z,18.97
2018-01-07T18:08:28.123Z,19.83
2018-01-07T18:10:56.728Z,16.60
2018-01-07T18:13:24.457Z,18.80
2018-01-07T18:15:52.144Z,16.33
2018-01-07T18:18:19.756Z,15.53
2018-01-07T18:20:48.118Z,15.87
2018-01-07T18:23:16.498Z,16.00
2018-01-07T18:25:44.093Z,15.20
2018-01-07T18:28:11.711Z,13.63
2018-01-07T18:30:39.297Z,19.40
2018-01-07T18:33:07.662Z,14.93
2018-01-07T18:35:35.249Z,13.77
2018-01-07T18:38:02.849Z,13.03
2018-01-07T18:40:31.206Z,14.03
2018-01-07T18:42:58.786Z,13.97
2018-01-07T18:45:26.421Z,13.33
2018-01-07T18:47:54.033Z,13.33
2018-01-07T18:50:21.676Z,14.87
2018-01-07T18:52:49.273Z,13.20
2018-01-07T18:55:17.666Z,14.23
2018-01-07T18:57:46.031Z,14.43
2018-01-07T19:00:14.498Z,14.70
2018-01-07T19:02:42.117Z,14.07
2018-01-07T19:05:09.722Z,14.23
2018-01-07T19:07:37.321Z,13.97
2018-01-07T19:10:05.650Z,14.70
2018-01-07T19:12:33.289Z,14.77
2018-01-07T19:15:00.873Z,14.67
2018-01-07T19:17:28.528Z,14.37
2018-01-07T19:19:56.134Z,15.37
2018-01-07T19:22:24.347Z,16.77
2018-01-07T19:24:51.973Z,16.10
2018-01-07T19:27:19.692Z,15.90
2018-01-07T19:29:47.320Z,16.27
2018-01-07T19:32:14.909Z,16.30
2018-01-07T19:34:42.613Z,16.77
2018-01-07T19:37:10.226Z,16.67
2018-01-07T19:39:37.813Z,16.33
2018-01-07T19:42:05.416Z,17.63
2018-01-07T19:44:33.013Z,16.97
2018-01-07T19:47:00.621Z,19.23
2018-01-07T19:49:28.237Z,18.13
2018-01-07T19:51:55.882Z,17.20
2018-01-07T19:54:23.556Z,17.53
2018-01-07T19:56:51.218Z,17.40
2018-01-07T19:59:18.811Z,19.43
2018-01-07T20:01:47.198Z,17.67
2018-01-07T20:04:15.626Z,16.50
2018-01-07T20:06:43.255Z,18.30
2018-01-07T20:09:10.843Z,18.30
2018-01-07T20:11:38.474Z,18.50
2018-01-07T20:14:06.070Z,18.50
2018-01-07T20:16:33.684Z,19.43
2018-01-07T20:19:01.324Z,18.80
2018-01-07T20:21:29.761Z,19.80
2018-01-07T20:23:57.389Z,19.17
2018-01-07T20:26:25.030Z,18.80
2018-01-07T20:28:53.489Z,18.93
2018-01-07T20:31:21.086Z,22.40
2018-01-07T20:33:49.517Z,19.20
2018-01-07T20:36:17.135Z,20.57
2018-01-07T20:38:44.769Z,22.10
2018-01-07T20:41:13.144Z,20.13
2018-01-07T20:43:41.561Z,19.90
2018-01-07T20:46:09.196Z,20.43
2018-01-07T20:48:37.575Z,19.37
2018-01-07T20:51:05.972Z,19.83
2018-01-07T20:53:34.540Z,19.53
2018-01-07T20:56:02.939Z,19.57
2018-01-07T20:58:30.538Z,20.10
2018-01-07T21:00:58.175Z,19.93
2018-01-07T21:03:25.865Z,20.47
2018-01-07T21:05:55.276Z,19.67
2018-01-07T21:08:24.672Z,19.47
2018-01-07T21:10:52.278Z,19.03
2018-01-07T21:13:21.065Z,20.20
2018-01-07T21:15:48.672Z,19.93
2018-01-07T21:18:16.272Z,21.23
2018-01-07T21:20:44.646Z,21.53
2018-01-07T21:23:13.019Z,20.37
2018-01-07T21:25:41.367Z,20.80
2018-01-07T21:28:09.072Z,20.47
2018-01-07T21:30:37.438Z,22.00
2018-01-07T21:33:06.366Z,20.97
2018-01-07T21:35:33.969Z,21.57
2018-01-07T21:38:01.592Z,21.83
2018-01-07T21:40:29.189Z,23.20
2018-01-07T21:42:56.818Z,22.80
2018-01-07T21:45:24.449Z,21.47
2018-01-07T21:47:52.069Z,22.93
2018-01-07T21:50:19.677Z,22.10
2018-01-07T21:52:48.040Z,22.40
2018-01-07T21:55:17.261Z,22.13
2018-01-07T21:57:45.499Z,23.67
2018-01-07T22:00:39.855Z,22.83
2018-01-07T22:03:19.372Z,23.57
2018-01-07T22:05:54.833Z,23.37
2018-01-07T22:08:22.426Z,23.07
2018-01-07T22:10:50.039Z,23.83
2018-01-07T22:13:17.648Z,23.60
2018-01-07T22:15:45.276Z,25.53
2018-01-07T22:18:12.924Z,24.83
2018-01-07T22:20:40.565Z,22.40
2018-01-07T22:23:08.183Z,23.40
2018-01-07T22:25:35.818Z,23.30
2018-01-07T22:28:03.416Z,24.37
2018-01-07T22:30:31.026Z,23.43
2018-01-07T22:32:58.670Z,23.27
2018-01-07T22:35:26.270Z,24.47
2018-01-07T22:37:53.871Z,24.23
2018-01-07T22:40:22.406Z,24.13
2018-01-07T22:42:50.273Z,25.73
2018-01-07T22:45:17.915Z,25.17
2018-01-07T22:47:51.026Z,25.70
2018-01-07T22:50:18.647Z,25.43
2018-01-07T22:52:46.263Z,24.17
2018-01-07T22:55:13.863Z,26.33
2018-01-07T22:57:42.271Z,24.77
2018-01-07T23:00:09.870Z,25.20
2018-01-07T23:02:37.515Z,25.83
2018-01-07T23:05:05.112Z,24.53
2018-01-07T23:07:33.496Z,23.50
2018-01-07T23:10:01.845Z,24.23
2018-01-07T23:12:29.573Z,26.33
2018-01-07T23:14:58.407Z,24.33
2018-01-07T23:17:26.044Z,26.03
2018-01-07T23:19:53.635Z,26.70
2018-01-07T23:22:21.988Z,26.20
2018-01-07T23:24:49.588Z,25.83
2018-01-07T23:27:18.003Z,27.30
2018-01-07T23:29:45.621Z,28.10
2018-01-07T23:32:13.989Z,28.43
2018-01-07T23:34:41.608Z,29.57
2018-01-07T23:37:09.217Z,37.30
2018-01-07T23:39:36.804Z,34.13
2018-01-07T23:42:04.410Z,34.47
2018-01-07T23:44:32.033Z,28.67
2018-01-07T23:46:59.663Z,28.97
2018-01-07T23:49:28.052Z,27.73
2018-01-07T23:51:56.428Z,29.37
2018-01-07T23:54:24.867Z,27.30
2018-01-07T23:56:52.503Z,27.93
2018-01-07T23:59:20.081Z,29.13
